Science @4-ch

Num Title Posts Last post File size
1: Defuse a volcano? 22 2018-05-15 20:51 21 kb
2: Endocrine disrupting and Asthma-associated chemicals in hair products used by Black women 3 2018-05-06 14:49 6 kb
3: Silicon based life, has anybody tried this? 5 2017-10-20 07:05 9 kb
4: Alternate Shuttle Aces Early Test 5 2017-10-03 18:37 8 kb
5: Pluto not a planet ;_; 44 2017-10-02 22:01 33 kb
6: Evolution is a DIRTY LIE 129 2017-08-19 18:29 121 kb
7: THE FUTURE OF TEXTBOARDS, IN http://fart.ga/ !! 1 2017-04-11 01:33 5 kb
8: Here's how much money doctors actually make 2 2017-04-07 02:28 6 kb
9: Let's think how to cure the 'baldness' 24 2017-03-31 10:00 20 kb
10: Higgs field, Bose condensate, quantum fluctuations, inertia 31 2017-03-12 13:36 25 kb
11: What is the meaning of life 6 2017-03-07 17:51 7 kb
12: Would you break Number Code? 4 2016-11-28 21:23 6 kb
13: Public debate on the (in)effectiveness of homeopathy 4 2016-11-06 04:00 6 kb
14: When will they come out with a 256 bit OS or 1024 bit CPU? 78 2016-10-14 09:18 63 kb
15: Bionic Eye helps the blind see low-res B&W video 8 2016-05-06 23:10 8 kb
16: Good book for physics? 11 2016-04-28 15:50 11 kb
17: Using a molecule as a basic transistor 4 2015-09-10 11:54 6 kb
18: U F O 34 2015-06-10 18:27 33 kb
19: theory 17 2015-04-28 09:25 15 kb
20: We are living in a simulation 59 2014-11-23 10:15 51 kb
21: Planetary Wind Speeds 10 2014-11-01 23:49 13 kb
22: The science of economics (pro). 8 2014-07-27 08:17 17 kb
23: Internet, teach me math 8 2013-11-10 01:00 8 kb
24: Earth's Magnetic Field Polarity Reversal 11 2013-09-21 07:34 12 kb
25: [Debate] The Problem of Evil [Religion] 79 2013-08-29 22:02 78 kb
26: Should CERN Deactivate the Large Hadron Collider? 7 2013-04-08 14:45 10 kb
27: There are no scientific threads on this page 11 2013-01-18 12:04 11 kb
28: Randall Museum 1 2012-12-11 14:51 5 kb
29: Curiosity has landed on Mars! 4 2012-11-22 19:41 7 kb
30: The "Terminator" arm on a man who lost his right arm six years ago. 2 2012-11-13 15:08 6 kb
31: Is the Universe Finite - or Infinite (You thoughts) 50 2012-11-02 22:30 48 kb
32: What is a specific name of this fish? 2 2012-09-25 03:55 6 kb
33: Psychology is a fake science 82 2012-09-09 15:42 84 kb
34: Maximum temperature? 2 2012-08-17 22:43 6 kb
35: What do you think of this? The disadvantage of Smarts. 5 2012-09-19 00:00 7 kb
36: What Makes People Go Psycho? 37 2012-06-10 15:02 26 kb
37: iPhone program enables the blind to text! 9 2012-04-24 02:39 11 kb
38: Russian Inventor Patents Invisibility Cloak 11 2012-01-18 23:40 15 kb
39: ((゚)Å(゚))Tokai amateur radio earthquake prediction society 10 2012-01-18 16:49 11 kb
40: Liquid/organic circuits 14 2011-11-29 15:54 13 kb
41: Enigmatic Marks 2 2012-02-29 11:26 5 kb
42: Travel Through a Black Hole 19 2011-10-12 14:37 24 kb
43: [Theory] Quantum Mechanics Thread [Physics] 6 2011-09-22 00:11 12 kb
44: Japanese inventor develops flying sphere drone 1 2011-08-05 17:25 5 kb
45: Strings 2011 in Uppsala, Sweden 1 2011-07-02 16:41 7 kb
46: Proof that God Exists (permasaged) 615 2011-10-12 14:36 639 kb
47: Interstellar Navigation 10 2011-05-23 22:04 16 kb
48: The Identity of God 32 2011-05-17 18:10 34 kb
49: Phobos and Deimos 5 2011-04-28 21:46 8 kb
50: Gentlemen, we build das Übermensch 71 2011-03-22 19:59 53 kb
51: [teleportation] We can move atoms by telepotation[cooltech] 27 2011-01-31 16:35 26 kb
52: Polynomial long division 1 2011-01-12 19:39 5 kb
53: ALGEBRA NAO! 12 2010-12-14 17:01 12 kb
54: Science major 4 2010-10-08 11:26 6 kb
55: A Science Imageboard 12 2010-09-15 03:35 12 kb
56: Imagining the tenth dimension 3 2010-06-15 04:50 10 kb
57: P=NP 6 2010-09-27 22:58 9 kb
58: Global Warming thread closed? 36 2010-02-18 16:07 42 kb
59: Learn more! 2 2010-01-18 20:41 6 kb
60: Turing Test... Redux 10 2010-01-08 23:41 14 kb
61: Physical Characteristics 4 2009-12-29 14:07 7 kb
62: THE EFFECTS OF AMORALISM 8 2009-12-23 18:48 13 kb
63: Coolest invention of the decade 33 2009-12-01 18:14 24 kb
64: Safe and Painless Manipulation of Penile Zipper Entrapment [Levity/Useful] 18 2009-11-01 05:07 17 kb
65: How much of our brain do we really use? (permasaged) 14 2010-12-24 05:47 14 kb
66: Free Will vs. Predestination 12 2009-08-04 08:51 21 kb
67: Warp Drive 2 2009-06-27 00:46 7 kb
68: Why can't you go faster than the speed of light. 26 2009-06-22 03:20 29 kb
69: Robots! 11 2009-05-25 07:20 17 kb
70: Cladograms 1 2009-04-28 00:59 5 kb
71: Elasticband ball satellite 10 2009-04-24 19:40 11 kb
72: Subconscious decision making (looking for references) 4 2009-05-04 12:58 8 kb
73: What does music do to the brain? 7 2009-04-11 17:09 9 kb
74: Breaking Physics 13 2009-03-30 22:54 19 kb
75: [Debate] Is God real? [Religion] 445 2009-03-29 15:50 450 kb
76: Bineural beats 5 2009-02-06 14:13 8 kb
77: Will we eventualy colonise other planets? 43 2009-01-22 07:51 51 kb
78: What is RIGHT? What is WRONG? 23 2009-01-15 01:29 22 kb
79: [Guilt] This is what religion does to people [Fear] 7 2009-01-11 14:54 12 kb
80: Mean effective pressure 4 2008-12-27 21:18 7 kb
81: Penis Bandwidth 17 2008-12-04 22:55 15 kb
82: Gille Deleuze 23 2008-10-09 05:41 35 kb
83: A passing thought on the nature of human beings. 56 2008-10-11 10:15 54 kb
84: light speed travel and time dilation. 5 2008-10-02 08:18 8 kb
85: JET PACK 4 2008-09-27 16:13 7 kb
86: Peak Oil, a bleak future? 21 2008-09-19 03:13 29 kb
87: Mind Filter 26 2008-09-12 15:58 27 kb
88: Nuclear war? 56 2008-08-29 11:04 56 kb
89: Studying mathematics 3 2008-08-08 13:18 11 kb
90: Cleaning Funnel 6 2008-08-06 20:37 9 kb
91: Majors 14 2008-08-05 05:53 15 kb
92: Addicted to maths 36 2008-11-20 17:17 29 kb
93: Need Science Consult 6 2008-07-20 14:53 8 kb
94: Gaia Theory 12 2008-07-07 10:31 12 kb
95: Human diet 16 2008-06-27 23:35 15 kb
96: Brain Simulation 1 2008-06-22 12:34 6 kb
97: nibiru, planet x, time wave zero, 2012 17 2008-06-09 11:19 16 kb
98: Time travel 209 2008-06-06 20:12 184 kb
99: chemistry 16 2008-04-27 06:02 13 kb
100: The Philosophy Thread 53 2008-04-25 05:14 47 kb
101: What would be the environmental requirements for a mechanical species to na 20 2008-04-15 07:07 23 kb
102: Interesting facts 21 2008-03-27 02:04 31 kb
103: Room tempurature superconducters! 2 2008-03-22 02:26 6 kb
104: Interesting Techniques 3 2008-03-07 18:28 8 kb
105: Statistical Methods 2 2008-03-07 13:49 8 kb
106: does science require belief? 20 2008-03-07 10:40 32 kb
107: Biologist or Ecologist? 9 2008-02-27 20:29 11 kb
108: The Purpose of Aging (and living, dying) 44 2008-02-23 10:52 42 kb
109: [Links] Awesome Pictures, Video and Audio [Astronomy/Biology/Engineering/Whatever] 5 2008-02-21 03:16 9 kb
110: Theoretical physicist Michio Kaku 25 2008-02-12 17:44 21 kb
111: Geniuses, IQ and hard work 55 2008-02-16 20:35 51 kb
112: Macgyver Ingenuity 7 2008-01-24 22:55 10 kb
113: All Quiet Alert: We're all out of sunspots 17 2008-01-12 00:42 18 kb
114: E8 may be structure of the Universe [new general theory] 7 2008-01-18 11:19 13 kb
115: Is Gilgamesh real? 12 2008-02-08 16:26 13 kb
116: Balsa Wood Bridges 2 2007-12-28 00:52 6 kb
117: [Society] Overpopulation is the key to solving many problems 13 2007-12-17 05:38 17 kb
118: Spacetime 18 2007-12-05 20:05 15 kb
119: Most Popular myths in Science 45 2007-12-04 18:41 40 kb
120: UK PhD funding 1 2007-12-01 17:34 5 kb
121: [Debate] Abortion [Morals] 45 2007-11-06 02:47 41 kb
122: [environment] The Great Global Warming Swindle [politics] (closed) 445 2007-10-15 19:20 515 kb
123: Stem cell debate 109 2007-10-15 08:35 121 kb
124: A possible Waterworld? 30 2007-10-15 08:09 26 kb
125: Solar sublimation 1 2007-10-07 01:44 5 kb
126: Time Cube: Cubic Awareness Online 7 2007-09-09 03:58 12 kb
127: Landmark Study Prompts DNA Rethink 7 2007-09-08 22:00 13 kb
128: Being Alive 26 2007-08-24 02:37 25 kb
129: 2029 Asteroid 24 2007-07-13 20:17 23 kb
130: N00b (closed) 9 2007-07-08 04:08 9 kb
131: Etna Carinae 2 2007-07-15 09:31 6 kb
132: Objectivism and Ayn Rand [Philosophy] 49 2007-06-22 23:18 49 kb
133: Electromagnetism Question 3 2007-06-11 20:10 8 kb
134: Archimedes meet Particle Accelerator 11 2007-05-08 04:31 11 kb
135: Biome Project 3 2007-05-07 09:46 6 kb
136: Pharmacies and its wonders 5 2007-04-26 10:15 8 kb
137: Exercise/fitness 62 2007-05-26 15:15 68 kb
138: Free Will 115 2007-03-16 04:04 170 kb
139: Toothpaste Taste 12 2007-03-14 05:04 13 kb
140: [Hyperdrive] Does this mean we should take Klingon in School [Hyperdrive] 16 2007-02-18 15:01 19 kb
141: oxygen from lunar soil 7 2007-02-11 13:22 9 kb
142: "Scientists Look At Worm for Electronic Wine Nose" 5 2007-03-10 18:40 7 kb
143: Archimedean property 2 2007-01-28 10:27 6 kb
144: Scientific Innovation Activity Thread! 52 2007-01-28 16:20 50 kb
145: Financial types 19 2007-01-22 00:49 17 kb
146: Wireless energy? 5 2007-01-20 09:03 8 kb
147: Division By Zero, Defined by Anonymous 4 2006-12-28 23:30 10 kb
148: Poaching makes elephants evolve tuskless 13 2006-12-09 02:15 16 kb
149: How big is infinity to human intuition? 30 2007-01-09 23:39 26 kb
150: Some Products Of Dr.Zaghloul Elnaggar 24 2006-11-23 08:02 26 kb
151: Scientists discover prehistoric cave with unknown lifeforms 41 2006-11-21 13:11 40 kb
152: plane whose Normal is (0, 0, 0) not possible, right? 3 2006-11-09 10:49 7 kb
153: The Malthusian Catastrophe might just be too limited in scope. 5 2006-10-19 00:02 10 kb
154: This is the Science Board. (permasaged) 19 2006-10-11 17:40 16 kb
155: Free energy 37 2006-08-26 16:53 35 kb
156: DNA sequences 5 2006-08-15 19:09 9 kb
157: Japanese Katana vs Browning 6 2006-07-27 10:08 13 kb
158: Magnetic Fridge 4 2006-06-28 07:40 8 kb
159: Maths 19 2006-06-19 12:44 16 kb
160: New battery innovation on the horizon 10 2006-06-08 17:55 13 kb
161: Gravity Tractors to deflect asteroids 43 2006-05-11 18:06 49 kb
162: Economics 23 2006-05-11 00:26 19 kb
163: Perfect historic recall 8 2006-04-26 02:04 11 kb
164: Polymer Light-Emitting Diodes 6 2006-04-19 00:32 10 kb
165: Cold plasma pencil 4 2006-04-06 23:15 7 kb
166: I'm going to go see the solar eclipse tomorrow 6 2006-04-06 23:12 7 kb
167: Google accused of bio-piracy 3 2006-04-05 19:56 7 kb
168: Braaaains... 5 2006-04-04 23:40 7 kb
169: Antigravity beam 16 2006-03-25 03:46 17 kb
170: Definition of a planet 9 2006-03-09 00:46 12 kb
171: New record for Saharan crater 4 2006-03-08 14:39 8 kb
172: Quantum Computer Works Best When Switched Off 4 2006-03-04 02:02 7 kb
173: Take a leap into hyperspace 10 2006-02-23 17:30 12 kb
174: New Catalyst Produces Hydrogen from Water 11 2006-02-11 08:45 12 kb
175: Space simulator review 11 2006-02-07 22:41 14 kb
176: Ray Guns! 18 2006-01-30 15:01 31 kb
177: Predjudism against culture/memepools 4 2006-01-14 20:16 8 kb
178: New Nuclear Battery Lasts 12 Years 15 2005-12-28 07:35 18 kb
179: Static Energy 31 2005-12-14 13:47 34 kb
180: Circular Constant 6 2005-12-11 02:10 7 kb
181: Sociology thread. 14 2006-06-12 00:47 21 kb
182: Better to be a skeptic than a sucker 17 2005-12-03 20:14 17 kb
183: Good BBC Venus Article 2 2005-11-12 04:22 6 kb
184: DSP! Oh the horror..... 2 2005-11-02 09:28 6 kb
185: Spirit and Opportunity about to reach major milestone 7 2005-10-31 17:39 10 kb
186: Skyfishes spotted 5 2005-10-20 05:23 8 kb
187: Heat stuff 3 2005-10-09 23:24 7 kb
188: Weatherwars.info 5 2005-09-24 12:27 8 kb
189: Illicit pure hafnium seized in Bulgaria 4 2005-09-20 13:41 9 kb
190: Memories of a hacker 8 2005-09-14 23:57 12 kb
191: Atomic Batteries 4 2005-09-14 20:37 8 kb
192: Melting Glaciers 9 2014-10-29 20:20 12 kb
193: Virgin Conception 6 2005-09-12 11:23 9 kb
194: Killer scanners 7 2005-08-28 22:34 11 kb
195: Piano Man 31 2005-08-25 14:14 27 kb
196: Iapetus= Deathstar 7 2005-08-13 10:30 10 kb
197: ITER and JET 3 2005-08-05 04:55 8 kb
198: Tau-Leptons and ..... errr..... stuff?? 25 2005-08-02 21:23 27 kb
199: Mind over Matter 5 2005-07-20 19:29 9 kb
200: LED street lights first 1 2005-07-16 14:33 6 kb